<?xml version="1.0" encoding="UTF-8" standalone="no" ?>
<gpx xmlns="http://www.topografix.com/GPX/1/1" xmlns:xsi="http://www.w3.org/2001/XMLSchema-instance" xsi:schemaLocation="http://www.topografix.com/GPX/1/1 http://www.topografix.com/GPX/1/1/gpx.xsd" version="1.1" creator="VisuGPX - https://www.visugpx.com">
  <metadata>
    <name>Vacances 2021</name>
  </metadata>
  <trk>
    <name><![CDATA[Journal actif: 2021-07-30 17:55]]></name>
    <trkseg>
      <trkpt lat="48.6891" lon="-1.37969">
        <ele>7.83</ele>
        <time>2021-07-30T19:55:57Z</time>
      </trkpt>
      <trkpt lat="48.69012" lon="-1.37908">
        <ele>9.75</ele>
        <time>2021-07-30T19:56:06Z</time>
      </trkpt>
      <trkpt lat="48.69094" lon="-1.37793">
        <ele>9.27</ele>
        <time>2021-07-30T19:56:14Z</time>
      </trkpt>
      <trkpt lat="48.69243" lon="-1.37564">
        <ele>11.67</ele>
        <time>2021-07-30T19:56:28Z</time>
      </trkpt>
      <trkpt lat="48.69338" lon="-1.37439">
        <ele>12.15</ele>
        <time>2021-07-30T19:56:38Z</time>
      </trkpt>
      <trkpt lat="48.69365" lon="-1.374">
        <ele>9.75</ele>
        <time>2021-07-30T19:56:46Z</time>
      </trkpt>
      <trkpt lat="48.69366" lon="-1.37388">
        <ele>9.27</ele>
        <time>2021-07-30T19:56:48Z</time>
      </trkpt>
      <trkpt lat="48.69363" lon="-1.37381">
        <ele>8.79</ele>
        <time>2021-07-30T19:56:49Z</time>
      </trkpt>
      <trkpt lat="48.6936" lon="-1.37376">
        <ele>8.31</ele>
        <time>2021-07-30T19:56:50Z</time>
      </trkpt>
      <trkpt lat="48.69298" lon="-1.37288">
        <ele>7.83</ele>
        <time>2021-07-30T19:57:01Z</time>
      </trkpt>
      <trkpt lat="48.69282" lon="-1.37263">
        <ele>6.87</ele>
        <time>2021-07-30T19:57:04Z</time>
      </trkpt>
      <trkpt lat="48.69279" lon="-1.37255">
        <ele>6.87</ele>
        <time>2021-07-30T19:57:05Z</time>
      </trkpt>
      <trkpt lat="48.69276" lon="-1.37248">
        <ele>6.87</ele>
        <time>2021-07-30T19:57:06Z</time>
      </trkpt>
      <trkpt lat="48.69273" lon="-1.37241">
        <ele>7.35</ele>
        <time>2021-07-30T19:57:07Z</time>
      </trkpt>
      <trkpt lat="48.69272" lon="-1.37235">
        <ele>7.35</ele>
        <time>2021-07-30T19:57:08Z</time>
      </trkpt>
      <trkpt lat="48.69273" lon="-1.37228">
        <ele>7.35</ele>
        <time>2021-07-30T19:57:09Z</time>
      </trkpt>
      <trkpt lat="48.69275" lon="-1.37219">
        <ele>7.35</ele>
        <time>2021-07-30T19:57:10Z</time>
      </trkpt>
      <trkpt lat="48.69292" lon="-1.37091">
        <ele>11.19</ele>
        <time>2021-07-30T19:57:19Z</time>
      </trkpt>
      <trkpt lat="48.69275" lon="-1.36932">
        <ele>14.08</ele>
        <time>2021-07-30T19:57:28Z</time>
      </trkpt>
      <trkpt lat="48.69225" lon="-1.36754">
        <ele>11.19</ele>
        <time>2021-07-30T19:57:38Z</time>
      </trkpt>
      <trkpt lat="48.69203" lon="-1.36711">
        <ele>9.27</ele>
        <time>2021-07-30T19:57:42Z</time>
      </trkpt>
      <trkpt lat="48.69197" lon="-1.36705">
        <ele>9.27</ele>
        <time>2021-07-30T19:57:43Z</time>
      </trkpt>
      <trkpt lat="48.69191" lon="-1.36702">
        <ele>9.27</ele>
        <time>2021-07-30T19:57:44Z</time>
      </trkpt>
      <trkpt lat="48.69186" lon="-1.367">
        <ele>9.75</ele>
        <time>2021-07-30T19:57:45Z</time>
      </trkpt>
      <trkpt lat="48.69182" lon="-1.36697">
        <ele>9.27</ele>
        <time>2021-07-30T19:57:46Z</time>
      </trkpt>
      <trkpt lat="48.69177" lon="-1.36695">
        <ele>8.79</ele>
        <time>2021-07-30T19:57:47Z</time>
      </trkpt>
      <trkpt lat="48.69172" lon="-1.36695">
        <ele>8.31</ele>
        <time>2021-07-30T19:57:48Z</time>
      </trkpt>
      <trkpt lat="48.69158" lon="-1.367">
        <ele>7.83</ele>
        <time>2021-07-30T19:57:50Z</time>
      </trkpt>
      <trkpt lat="48.6915" lon="-1.367">
        <ele>7.83</ele>
        <time>2021-07-30T19:57:51Z</time>
      </trkpt>
      <trkpt lat="48.69143" lon="-1.36699">
        <ele>7.83</ele>
        <time>2021-07-30T19:57:52Z</time>
      </trkpt>
      <trkpt lat="48.69137" lon="-1.36693">
        <ele>8.31</ele>
        <time>2021-07-30T19:57:53Z</time>
      </trkpt>
      <trkpt lat="48.69131" lon="-1.36685">
        <ele>8.31</ele>
        <time>2021-07-30T19:57:54Z</time>
      </trkpt>
      <trkpt lat="48.69126" lon="-1.36677">
        <ele>8.79</ele>
        <time>2021-07-30T19:57:55Z</time>
      </trkpt>
      <trkpt lat="48.69119" lon="-1.36658">
        <ele>9.27</ele>
        <time>2021-07-30T19:57:56Z</time>
      </trkpt>
      <trkpt lat="48.69119" lon="-1.36647">
        <ele>9.75</ele>
        <time>2021-07-30T19:57:57Z</time>
      </trkpt>
      <trkpt lat="48.69119" lon="-1.36635">
        <ele>9.75</ele>
        <time>2021-07-30T19:57:58Z</time>
      </trkpt>
      <trkpt lat="48.69119" lon="-1.36635">
        <ele>10.71</ele>
        <time>2021-07-30T19:57:59Z</time>
      </trkpt>
      <trkpt lat="48.69119" lon="-1.36632">
        <ele>10.71</ele>
        <time>2021-07-30T19:58:00Z</time>
      </trkpt>
      <trkpt lat="48.69123" lon="-1.36611">
        <ele>11.19</ele>
        <time>2021-07-30T19:58:01Z</time>
      </trkpt>
      <trkpt lat="48.6912" lon="-1.366">
        <ele>11.19</ele>
        <time>2021-07-30T19:58:02Z</time>
      </trkpt>
      <trkpt lat="48.69117" lon="-1.36589">
        <ele>11.19</ele>
        <time>2021-07-30T19:58:03Z</time>
      </trkpt>
      <trkpt lat="48.69114" lon="-1.36577">
        <ele>11.67</ele>
        <time>2021-07-30T19:58:04Z</time>
      </trkpt>
      <trkpt lat="48.69107" lon="-1.36564">
        <ele>10.71</ele>
        <time>2021-07-30T19:58:05Z</time>
      </trkpt>
      <trkpt lat="48.69046" lon="-1.36433">
        <ele>17.44</ele>
        <time>2021-07-30T19:58:15Z</time>
      </trkpt>
      <trkpt lat="48.69025" lon="-1.36356">
        <ele>19.84</ele>
        <time>2021-07-30T19:58:20Z</time>
      </trkpt>
      <trkpt lat="48.69022" lon="-1.3634">
        <ele>20.81</ele>
        <time>2021-07-30T19:58:21Z</time>
      </trkpt>
      <trkpt lat="48.68988" lon="-1.36134">
        <ele>30.9</ele>
        <time>2021-07-30T19:58:34Z</time>
      </trkpt>
      <trkpt lat="48.68966" lon="-1.36003">
        <ele>36.19</ele>
        <time>2021-07-30T19:58:43Z</time>
      </trkpt>
      <trkpt lat="48.68965" lon="-1.35997">
        <ele>36.67</ele>
        <time>2021-07-30T19:58:44Z</time>
      </trkpt>
      <trkpt lat="48.68965" lon="-1.35997">
        <ele>36.67</ele>
        <time>2021-07-30T19:58:45Z</time>
      </trkpt>
      <trkpt lat="48.6896" lon="-1.36">
        <ele>36.67</ele>
        <time>2021-07-30T19:58:46Z</time>
      </trkpt>
      <trkpt lat="48.68955" lon="-1.36">
        <ele>37.15</ele>
        <time>2021-07-30T19:58:47Z</time>
      </trkpt>
      <trkpt lat="48.68958" lon="-1.36001">
        <ele>37.15</ele>
        <time>2021-07-30T19:58:48Z</time>
      </trkpt>
      <trkpt lat="48.68952" lon="-1.35999">
        <ele>37.15</ele>
        <time>2021-07-30T19:58:49Z</time>
      </trkpt>
      <trkpt lat="48.68951" lon="-1.36004">
        <ele>37.15</ele>
        <time>2021-07-30T19:58:50Z</time>
      </trkpt>
      <trkpt lat="48.6895" lon="-1.3601">
        <ele>37.15</ele>
        <time>2021-07-30T19:58:51Z</time>
      </trkpt>
      <trkpt lat="48.68937" lon="-1.36124">
        <ele>40.51</ele>
        <time>2021-07-30T19:59:00Z</time>
      </trkpt>
      <trkpt lat="48.68918" lon="-1.3629">
        <ele>47.24</ele>
        <time>2021-07-30T19:59:11Z</time>
      </trkpt>
      <trkpt lat="48.68886" lon="-1.36454">
        <ele>55.89</ele>
        <time>2021-07-30T19:59:20Z</time>
      </trkpt>
      <trkpt lat="48.68869" lon="-1.36506">
        <ele>57.82</ele>
        <time>2021-07-30T19:59:23Z</time>
      </trkpt>
      <trkpt lat="48.68862" lon="-1.36521">
        <ele>59.26</ele>
        <time>2021-07-30T19:59:24Z</time>
      </trkpt>
      <trkpt lat="48.68854" lon="-1.36532">
        <ele>60.7</ele>
        <time>2021-07-30T19:59:25Z</time>
      </trkpt>
      <trkpt lat="48.68839" lon="-1.36548">
        <ele>62.14</ele>
        <time>2021-07-30T19:59:26Z</time>
      </trkpt>
      <trkpt lat="48.68839" lon="-1.36548">
        <ele>62.14</ele>
        <time>2021-07-30T19:59:27Z</time>
      </trkpt>
      <trkpt lat="48.6883" lon="-1.36554">
        <ele>62.62</ele>
        <time>2021-07-30T19:59:28Z</time>
      </trkpt>
      <trkpt lat="48.68814" lon="-1.36557">
        <ele>62.62</ele>
        <time>2021-07-30T19:59:29Z</time>
      </trkpt>
      <trkpt lat="48.68808" lon="-1.36557">
        <ele>63.1</ele>
        <time>2021-07-30T19:59:30Z</time>
      </trkpt>
      <trkpt lat="48.68808" lon="-1.36557">
        <ele>63.58</ele>
        <time>2021-07-30T19:59:31Z</time>
      </trkpt>
      <trkpt lat="48.68797" lon="-1.36566">
        <ele>63.58</ele>
        <time>2021-07-30T19:59:32Z</time>
      </trkpt>
      <trkpt lat="48.68791" lon="-1.36561">
        <ele>64.07</ele>
        <time>2021-07-30T19:59:33Z</time>
      </trkpt>
      <trkpt lat="48.68787" lon="-1.36564">
        <ele>64.55</ele>
        <time>2021-07-30T19:59:34Z</time>
      </trkpt>
      <trkpt lat="48.68781" lon="-1.36568">
        <ele>64.07</ele>
        <time>2021-07-30T19:59:35Z</time>
      </trkpt>
      <trkpt lat="48.68775" lon="-1.36572">
        <ele>64.55</ele>
        <time>2021-07-30T19:59:36Z</time>
      </trkpt>
      <trkpt lat="48.68694" lon="-1.36627">
        <ele>67.43</ele>
        <time>2021-07-30T19:59:45Z</time>
      </trkpt>
      <trkpt lat="48.68618" lon="-1.36675">
        <ele>77.52</ele>
        <time>2021-07-30T19:59:54Z</time>
      </trkpt>
      <trkpt lat="48.68608" lon="-1.36711">
        <ele>77.04</ele>
        <time>2021-07-30T20:00:05Z</time>
      </trkpt>
    </trkseg>
  </trk>
</gpx>